Time;durP1;ratioP1;P1;durP2;ratioP2;P2;SDS_P1;SDS_P2;PMS_P1;PMS_P2;Temp;Humidity;BMP_temperature;BMP_pressure;BME280_temperature;BME280_humidity;BME280_pressure;Samples;Min_cycle;Max_cycle;Signal;HPM_P1;HPM_P2
2022/06/28 00:00:24;;;;;;;45.63;43.23;;;;;;;17.01;100.00;97230.19;5031847;28;20210;-61
2022/06/28 00:02:50;;;;;;;46.17;43.63;;;;;;;17.05;100.00;97231.28;5033060;28;20162;-62
2022/06/28 00:05:16;;;;;;;47.27;44.67;;;;;;;17.02;100.00;97223.84;5033144;28;20635;-62
2022/06/28 00:07:42;;;;;;;51.40;48.40;;;;;;;17.11;100.00;97224.16;5033449;28;20170;-62
2022/06/28 00:10:09;;;;;;;51.43;48.63;;;;;;;17.01;100.00;97230.19;5033157;28;20214;-62
2022/06/28 00:12:35;;;;;;;46.77;44.03;;;;;;;17.01;100.00;97232.84;5032996;28;20639;-63
2022/06/28 00:17:44;;;;;;;44.23;41.63;;;;;;;17.00;100.00;97231.25;5032770;28;20258;-63
2022/06/28 00:20:11;;;;;;;45.70;43.13;;;;;;;17.02;100.00;97236.28;5032719;28;20301;-63
2022/06/28 00:22:36;;;;;;;42.50;40.13;;;;;;;17.19;100.00;97238.78;5032718;28;20613;-63
2022/06/28 00:25:02;;;;;;;44.37;41.97;;;;;;;17.28;100.00;97240.66;5032988;28;20185;-62
2022/06/28 00:27:27;;;;;;;70.30;66.43;;;;;;;17.34;100.00;97242.28;5033099;28;20221;-64
2022/06/28 00:29:53;;;;;;;46.13;43.70;;;;;;;17.28;100.00;97234.56;5032337;28;20190;-63
2022/06/28 00:32:18;;;;;;;61.00;57.77;;;;;;;17.25;100.00;97251.78;5032604;28;20665;-63
2022/06/28 00:34:44;;;;;;;51.03;48.40;;;;;;;17.37;100.00;97244.44;5032883;28;20188;-63
2022/06/28 00:37:10;;;;;;;45.00;42.60;;;;;;;17.38;100.00;97238.09;5033662;28;20187;-64
2022/06/28 00:39:35;;;;;;;40.70;38.50;;;;;;;17.35;100.00;97237.78;5047745;28;20244;-63
2022/06/28 00:42:01;;;;;;;64.17;60.77;;;;;;;17.09;100.00;97239.53;5053477;28;20284;-64
2022/06/28 00:44:27;;;;;;;54.33;51.43;;;;;;;17.13;100.00;97243.25;5053321;28;20615;-63
2022/06/28 00:46:53;;;;;;;40.47;38.37;;;;;;;17.14;100.00;97239.53;5053778;28;20538;-65
2022/06/28 00:49:19;;;;;;;33.60;31.80;;;;;;;17.08;100.00;97239.75;5053394;28;20170;-64
2022/06/28 00:51:45;;;;;;;38.00;36.10;;;;;;;16.95;100.00;97238.34;5052354;28;20198;-64
2022/06/28 00:54:10;;;;;;;60.60;57.50;;;;;;;16.72;100.00;97239.53;5051044;28;20619;-64
2022/06/28 00:56:35;;;;;;;51.27;48.60;;;;;;;16.81;100.00;97245.16;5033061;28;20194;-63
2022/06/28 00:59:01;;;;;;;40.77;38.47;;;;;;;16.73;100.00;97251.72;5032649;28;20170;-64
2022/06/28 01:01:27;;;;;;;31.53;29.90;;;;;;;16.75;100.00;97246.19;5032331;28;20221;-64
2022/06/28 01:03:54;;;;;;;58.87;55.70;;;;;;;16.66;100.00;97245.06;5032445;28;20162;-63
2022/06/28 01:06:19;;;;;;;53.13;50.30;;;;;;;16.65;100.00;97249.56;5032507;28;20527;-63
2022/06/28 01:08:46;;;;;;;57.43;54.43;;;;;;;16.50;100.00;97242.25;5032364;28;20175;-63
2022/06/28 01:11:19;;;;;;;47.70;45.23;;;;;;;16.53;100.00;97254.19;5032419;28;20734;-63
2022/06/28 01:13:53;;;;;;;54.43;51.60;;;;;;;16.63;100.00;97255.09;5035707;28;20650;-64
2022/06/28 01:16:20;;;;;;;54.30;51.50;;;;;;;16.72;100.00;97250.13;5036152;28;20212;-64
2022/06/28 01:18:46;;;;;;;55.63;52.67;;;;;;;16.59;100.00;97251.38;5036642;28;20178;-63
2022/06/28 01:21:13;;;;;;;53.47;50.70;;;;;;;16.62;100.00;97250.06;5036401;28;20582;-64
2022/06/28 01:23:41;;;;;;;47.63;45.20;;;;;;;16.71;100.00;97253.84;5036484;28;20237;-63
2022/06/28 01:26:07;;;;;;;59.97;56.83;;;;;;;16.86;100.00;97256.59;5035979;28;20178;-64
2022/06/28 01:28:33;;;;;;;53.83;50.90;;;;;;;16.74;100.00;97253.31;5040571;28;20181;-63
2022/06/28 01:30:59;;;;;;;37.87;35.90;;;;;;;16.73;100.00;97248.28;5055817;28;20201;-63
2022/06/28 01:33:24;;;;;;;35.70;33.90;;;;;;;16.67;100.00;97258.03;5055789;28;20189;-63
2022/06/28 01:35:50;;;;;;;37.07;35.00;;;;;;;16.68;100.00;97254.34;5056070;28;20265;-63
2022/06/28 01:38:15;;;;;;;52.50;49.03;;;;;;;16.69;100.00;97244.53;5048455;28;20222;-64
2022/06/28 01:40:45;;;;;;;59.47;55.87;;;;;;;16.58;100.00;97252.38;5035823;28;20218;-63
2022/06/28 01:43:12;;;;;;;52.67;49.47;;;;;;;16.47;100.00;97255.19;5036107;28;20270;-63
2022/06/28 01:45:39;;;;;;;47.73;45.17;;;;;;;16.78;100.00;97258.91;5035930;28;20163;-63
2022/06/28 01:48:05;;;;;;;40.10;37.97;;;;;;;16.64;100.00;97258.53;5035680;28;20163;-63
2022/06/28 01:50:31;;;;;;;39.37;37.33;;;;;;;16.73;100.00;97261.50;5035496;28;20220;-63
2022/06/28 01:52:56;;;;;;;43.40;41.13;;;;;;;16.61;100.00;97266.97;5035746;28;20177;-63
2022/06/28 01:55:22;;;;;;;59.80;56.70;;;;;;;16.56;100.00;97269.56;5034568;28;20586;-63
2022/06/28 01:57:47;;;;;;;56.70;53.73;;;;;;;16.56;100.00;97274.84;5035471;28;20167;-63
2022/06/28 02:00:13;;;;;;;46.13;43.73;;;;;;;16.51;100.00;97265.03;5035376;28;20285;-63
2022/06/28 02:02:38;;;;;;;42.00;39.73;;;;;;;16.34;100.00;97260.91;5035410;28;20166;-63
2022/06/28 02:05:04;;;;;;;42.30;39.83;;;;;;;16.51;100.00;97262.38;5035227;28;20194;-63
2022/06/28 02:07:30;;;;;;;45.83;43.43;;;;;;;16.45;100.00;97263.38;5034065;28;20219;-63
2022/06/28 02:09:55;;;;;;;50.73;47.33;;;;;;;16.50;100.00;97263.41;5033673;28;20214;-63
2022/06/28 02:12:20;;;;;;;41.43;39.07;;;;;;;16.48;100.00;97262.91;5035013;28;20169;-63
2022/06/28 02:14:46;;;;;;;41.37;39.20;;;;;;;16.44;100.00;97272.38;5035033;28;20170;-63
2022/06/28 02:17:14;;;;;;;56.73;53.73;;;;;;;16.41;100.00;97264.94;5033979;28;20624;-63
2022/06/28 02:19:42;;;;;;;41.87;39.67;;;;;;;16.48;100.00;97259.44;5034966;28;20190;-63
2022/06/28 02:22:09;;;;;;;43.50;40.93;;;;;;;16.56;100.00;97264.25;5034301;28;20206;-63
2022/06/28 02:24:34;;;;;;;58.07;55.03;;;;;;;16.55;100.00;97263.47;5033472;28;20171;-63
2022/06/28 02:26:59;;;;;;;58.90;55.80;;;;;;;16.50;100.00;97254.69;5033929;28;20166;-63
2022/06/28 02:29:25;;;;;;;55.47;52.50;;;;;;;16.34;100.00;97250.31;5033705;28;20763;-63
2022/06/28 02:31:50;;;;;;;50.90;48.17;;;;;;;16.19;100.00;97259.72;5034166;28;20202;-63
2022/06/28 02:42:27;;;;;;;26.43;25.07;;;;;;;16.19;100.00;97270.31;5054422;28;20220;-64
2022/06/28 02:44:53;;;;;;;25.53;24.27;;;;;;;16.15;100.00;97269.22;5054346;28;20245;-64
2022/06/28 02:47:18;;;;;;;27.27;25.80;;;;;;;16.22;100.00;97263.69;5054149;28;20253;-64
2022/06/28 02:49:43;;;;;;;26.60;25.13;;;;;;;16.13;100.00;97268.66;5054293;28;20538;-63
2022/06/28 02:52:09;;;;;;;26.27;24.87;;;;;;;16.14;100.00;97272.91;5053735;28;20610;-63
2022/06/28 02:54:34;;;;;;;27.60;26.23;;;;;;;16.07;100.00;97277.56;5053950;28;20253;-63
2022/06/28 02:57:00;;;;;;;28.63;27.13;;;;;;;16.07;100.00;97274.94;5053982;28;20245;-63
2022/06/28 02:59:25;;;;;;;37.53;35.43;;;;;;;15.99;100.00;97271.94;5052286;28;20595;-63
2022/06/28 03:01:50;;;;;;;42.77;40.37;;;;;;;15.91;100.00;97270.53;5053816;28;20194;-63
2022/06/28 03:04:16;;;;;;;40.37;38.30;;;;;;;15.72;100.00;97279.81;5054049;28;20626;-63
2022/06/28 03:06:41;;;;;;;40.80;38.67;;;;;;;15.73;100.00;97282.22;5054347;28;20173;-63
2022/06/28 03:09:06;;;;;;;38.00;35.97;;;;;;;15.70;100.00;97280.09;5053643;28;20219;-63
2022/06/28 03:11:32;;;;;;;42.97;40.67;;;;;;;15.82;100.00;97272.03;5053678;28;20548;-63
2022/06/28 03:13:57;;;;;;;44.10;41.80;;;;;;;15.91;100.00;97281.13;5053663;28;20170;-63
2022/06/28 03:16:22;;;;;;;45.40;42.80;;;;;;;15.98;100.00;97281.72;5045610;28;20190;-63
2022/06/28 03:18:48;;;;;;;37.53;35.40;;;;;;;15.96;100.00;97286.44;5034285;28;20244;-63
2022/06/28 03:21:13;;;;;;;38.97;36.97;;;;;;;16.06;100.00;97283.91;5034034;28;20293;-63
2022/06/28 03:23:38;;;;;;;39.37;37.33;;;;;;;15.95;100.00;97287.50;5033959;28;20159;-63
2022/06/28 03:26:04;;;;;;;36.87;34.97;;;;;;;15.96;100.00;97285.66;5033883;28;20729;-63
2022/06/28 03:28:29;;;;;;;31.77;30.13;;;;;;;16.02;100.00;97282.03;5046539;28;20280;-63
2022/06/28 03:30:54;;;;;;;27.63;26.03;;;;;;;16.19;100.00;97288.00;5053490;28;20217;-63
2022/06/28 03:33:20;;;;;;;25.70;24.40;;;;;;;16.02;100.00;97285.47;5053525;28;20173;-63
2022/06/28 03:35:45;;;;;;;30.00;28.43;;;;;;;16.12;100.00;97282.91;5053257;28;20174;-63
2022/06/28 03:38:11;;;;;;;42.50;40.30;;;;;;;16.20;100.00;97281.69;5051765;28;20284;-64
2022/06/28 03:40:36;;;;;;;53.50;50.70;;;;;;;16.17;100.00;97282.97;5053167;28;20210;-63
2022/06/28 03:43:01;;;;;;;33.63;31.73;;;;;;;16.36;100.00;97288.72;5053521;28;20158;-63
2022/06/28 03:45:27;;;;;;;26.47;25.10;;;;;;;16.42;100.00;97292.19;5053411;28;20612;-63
2022/06/28 03:47:52;;;;;;;39.57;37.33;;;;;;;16.44;100.00;97288.25;5053547;28;20155;-63
2022/06/28 03:50:17;;;;;;;52.93;50.07;;;;;;;16.38;100.00;97291.91;5053300;28;20663;-63
2022/06/28 03:52:43;;;;;;;44.37;42.00;;;;;;;16.61;100.00;97291.59;5053058;28;20162;-63
2022/06/28 03:55:13;;;;;;;51.67;48.97;;;;;;;16.54;100.00;97291.00;5050610;28;20228;-63
2022/06/28 03:57:39;;;;;;;53.13;50.40;;;;;;;16.37;100.00;97292.97;5051876;28;20158;-63
2022/06/28 04:00:05;;;;;;;48.50;45.93;;;;;;;16.45;100.00;97289.03;5051264;28;20221;-63
2022/06/28 04:02:30;;;;;;;44.63;42.27;;;;;;;16.36;100.00;97293.19;5052753;28;20161;-63
2022/06/28 04:04:56;;;;;;;50.60;47.97;;;;;;;16.49;100.00;97290.97;5053147;28;20540;-63
2022/06/28 04:07:21;;;;;;;51.70;48.87;;;;;;;16.41;100.00;97290.59;5052485;28;20168;-63
2022/06/28 04:09:46;;;;;;;57.43;54.37;;;;;;;16.61;100.00;97290.78;5051488;28;20200;-63
2022/06/28 04:12:12;;;;;;;47.97;45.37;;;;;;;16.62;100.00;97295.03;5052717;28;20181;-63
2022/06/28 04:14:37;;;;;;;46.13;43.73;;;;;;;16.84;100.00;97297.59;5052139;28;20162;-63
2022/06/28 04:17:03;;;;;;;48.30;45.77;;;;;;;16.98;100.00;97290.84;5052313;28;20158;-63
2022/06/28 04:19:28;;;;;;;55.53;52.63;;;;;;;16.91;100.00;97301.63;5052499;28;20178;-63
2022/06/28 04:21:54;;;;;;;57.50;54.40;;;;;;;16.84;100.00;97297.59;5052300;28;20237;-63
2022/06/28 04:24:19;;;;;;;46.53;43.80;;;;;;;16.83;100.00;97291.50;5052668;28;20166;-63
2022/06/28 04:26:44;;;;;;;43.70;41.40;;;;;;;17.00;100.00;97292.16;5051697;28;20541;-63
2022/06/28 04:29:10;;;;;;;49.90;47.20;;;;;;;16.99;100.00;97293.22;5052283;28;20265;-63
2022/06/28 04:31:35;;;;;;;47.77;45.27;;;;;;;16.94;100.00;97282.56;5051946;28;20201;-63
2022/06/28 04:34:01;;;;;;;53.90;51.10;;;;;;;16.84;100.00;97279.88;5052591;28;20188;-63
2022/06/28 04:36:28;;;;;;;38.63;36.57;;;;;;;16.99;100.00;97284.50;5052510;28;20189;-63
2022/06/28 04:38:54;;;;;;;34.07;32.37;;;;;;;17.08;100.00;97288.25;5049519;28;20234;-64
2022/06/28 04:41:23;;;;;;;36.90;34.97;;;;;;;16.98;100.00;97296.13;5052150;28;20210;-64
2022/06/28 04:43:50;;;;;;;44.10;41.70;;;;;;;17.04;100.00;97293.25;5052314;28;20154;-63
2022/06/28 04:46:15;;;;;;;52.63;49.80;;;;;;;16.81;100.00;97298.91;5052372;28;20169;-63
2022/06/28 04:48:40;;;;;;;37.90;35.80;;;;;;;16.94;100.00;97303.75;5051609;28;20170;-61
2022/06/28 04:51:12;;;;;;;39.20;36.90;;;;;;;16.99;100.00;97305.69;5052545;28;20194;-63
2022/06/28 04:53:42;;;;;;;31.43;29.60;;;;;;;17.11;100.00;97300.19;5051289;28;20181;-61
2022/06/28 04:56:08;;;;;;;30.80;29.17;;;;;;;17.38;100.00;97309.63;5051647;28;20239;-63
2022/06/28 04:58:34;;;;;;;34.93;32.93;;;;;;;17.08;100.00;97313.94;5052214;28;20162;-63
2022/06/28 05:00:59;;;;;;;34.20;32.20;;;;;;;17.21;100.00;97294.97;5052302;28;20792;-63
2022/06/28 05:03:25;;;;;;;48.87;46.17;;;;;;;16.90;100.00;97300.03;5052138;28;20219;-63
2022/06/28 05:05:50;;;;;;;40.03;37.87;;;;;;;16.99;100.00;97295.09;5050621;28;20174;-63
2022/06/28 05:08:15;;;;;;;64.37;61.00;;;;;;;16.69;100.00;97295.63;5051574;28;20260;-63
2022/06/28 05:10:41;;;;;;;51.20;48.33;;;;;;;16.60;100.00;97294.53;5051794;28;20202;-62
2022/06/28 05:13:06;;;;;;;58.43;55.13;;;;;;;16.60;100.00;97291.88;5052298;28;20166;-63
2022/06/28 05:15:32;;;;;;;42.93;40.43;;;;;;;16.31;100.00;97278.09;5051712;28;20158;-63
2022/06/28 05:17:57;;;;;;;36.43;34.40;;;;;;;16.46;100.00;97266.81;5051574;28;20611;-64
2022/06/28 05:20:22;;;;;;;61.60;58.33;;;;;;;16.34;100.00;97277.56;5051791;28;20259;-63
2022/06/28 05:22:48;;;;;;;61.87;58.37;;;;;;;16.30;100.00;97279.13;5051782;28;20602;-63
2022/06/28 05:25:13;;;;;;;46.47;43.87;;;;;;;16.12;100.00;97293.50;5051895;28;20205;-63
2022/06/28 05:27:38;;;;;;;27.63;25.93;;;;;;;16.17;100.00;97282.16;5051570;28;20259;-63
2022/06/28 05:30:04;;;;;;;24.23;22.87;;;;;;;16.34;100.00;97282.84;5052208;28;20281;-63
2022/06/28 05:32:30;;;;;;;50.67;47.87;;;;;;;16.31;100.00;97278.09;5052735;28;20188;-63
2022/06/28 05:34:55;;;;;;;45.23;42.63;;;;;;;16.32;100.00;97273.59;5052125;28;20224;-63
2022/06/28 05:37:20;;;;;;;33.60;31.60;;;;;;;16.47;100.00;97284.31;5051774;28;20170;-64
2022/06/28 05:39:46;;;;;;;31.20;29.27;;;;;;;16.42;100.00;97282.41;5049692;28;20301;-63
2022/06/28 05:42:12;;;;;;;33.17;31.07;;;;;;;16.68;100.00;97287.94;5051792;28;20212;-63
2022/06/28 05:44:37;;;;;;;27.83;25.53;;;;;;;16.73;100.00;97283.50;5051972;28;20194;-64
2022/06/28 05:47:03;;;;;;;32.03;29.83;;;;;;;16.86;100.00;97292.84;5051805;28;20201;-64
2022/06/28 05:49:28;;;;;;;45.30;42.53;;;;;;;16.95;100.00;97280.72;5051889;28;20304;-64
2022/06/28 05:51:54;;;;;;;40.70;38.17;;;;;;;16.93;100.00;97286.31;5051537;28;20247;-64
2022/06/28 05:54:19;;;;;;;40.97;38.57;;;;;;;17.28;100.00;97295.50;5051477;28;20170;-64
2022/06/28 05:56:44;;;;;;;51.20;48.10;;;;;;;17.75;100.00;97288.34;5050107;28;20162;-64
2022/06/28 05:59:10;;;;;;;79.77;75.30;;;;;;;17.67;100.00;97282.75;5052199;28;20162;-62
2022/06/28 06:01:35;;;;;;;70.07;65.87;;;;;;;18.14;100.00;97278.13;5055363;28;20247;-62
2022/06/28 06:04:01;;;;;;;137.73;130.15;;;;;;;17.86;100.00;97283.88;5055090;28;20224;-62
2022/06/28 06:06:26;;;;;;;206.27;194.73;;;;;;;17.94;100.00;97288.69;5055154;28;20239;-62
2022/06/28 06:08:53;;;;;;;291.00;274.37;;;;;;;17.61;100.00;97287.22;5053866;28;20202;-62
2022/06/28 06:11:19;;;;;;;306.75;289.35;;;;;;;17.81;100.00;97286.53;5055001;28;20205;-62
2022/06/28 06:13:44;;;;;;;281.48;264.90;;;;;;;17.86;100.00;97286.53;5054956;28;20170;-62
2022/06/28 06:16:10;;;;;;;310.03;292.17;;;;;;;18.19;100.00;97290.59;5048902;28;20269;-62
2022/06/28 06:18:35;;;;;;;292.67;276.08;;;;;;;18.19;100.00;97295.91;5034994;28;20249;-62
2022/06/28 06:21:00;;;;;;;155.25;146.55;;;;;;;18.64;100.00;97287.22;5034780;28;20218;-62
2022/06/28 06:23:26;;;;;;;107.32;101.57;;;;;;;18.60;100.00;97291.50;5035014;28;20174;-60
2022/06/28 06:25:52;;;;;;;55.72;52.47;;;;;;;18.29;100.00;97291.41;5037279;28;20193;-62
2022/06/28 06:28:18;;;;;;;81.22;76.85;;;;;;;18.10;100.00;97282.38;5054688;28;20182;-62
2022/06/28 06:30:43;;;;;;;102.13;96.55;;;;;;;17.89;100.00;97280.69;5054755;28;20202;-62
2022/06/28 06:33:09;;;;;;;108.05;102.03;;;;;;;17.97;100.00;97282.84;5054772;28;20634;-63
2022/06/28 06:35:34;;;;;;;151.10;142.70;;;;;;;17.99;100.00;97293.22;5054488;28;20647;-62
2022/06/28 06:38:02;;;;;;;173.40;164.00;;;;;;;17.53;100.00;97294.84;5052591;28;20268;-62
2022/06/28 06:40:29;;;;;;;123.32;116.55;;;;;;;17.92;100.00;97301.41;5054445;28;20224;-61
2022/06/28 06:42:54;;;;;;;103.38;97.63;;;;;;;17.93;100.00;97294.25;5054438;28;20635;-62
2022/06/28 06:45:20;;;;;;;106.40;100.63;;;;;;;17.67;100.00;97286.19;5054569;28;20165;-63
2022/06/28 06:47:45;;;;;;;95.20;89.85;;;;;;;17.92;100.00;97282.03;5054477;28;20158;-62
2022/06/28 06:50:11;;;;;;;90.78;85.70;;;;;;;18.34;99.05;97277.34;5054658;28;20194;-62
2022/06/28 06:52:37;;;;;;;101.20;95.60;;;;;;;18.14;100.00;97272.81;5054286;28;20258;-62
2022/06/28 06:55:03;;;;;;;122.63;115.95;;;;;;;18.18;100.00;97268.56;5053836;28;20166;-62
2022/06/28 06:57:29;;;;;;;206.88;195.75;;;;;;;17.78;100.00;97263.97;5054502;28;20201;-62
2022/06/28 06:59:55;;;;;;;108.93;102.78;;;;;;;17.55;100.00;97247.69;5054026;28;20189;-62
2022/06/28 07:02:20;;;;;;;111.70;105.43;;;;;;;17.37;100.00;97238.34;5054308;28;20159;-63
2022/06/28 07:04:45;;;;;;;111.90;105.53;;;;;;;17.29;100.00;97228.22;5054164;28;20534;-62
2022/06/28 07:07:11;;;;;;;57.00;53.57;;;;;;;17.17;100.00;97211.72;5054102;28;20158;-62
2022/06/28 07:09:36;;;;;;;42.13;39.37;;;;;;;17.15;100.00;97195.31;5053804;28;20182;-62
2022/06/28 07:12:02;;;;;;;44.23;41.50;;;;;;;16.97;100.00;97181.44;5053863;28;20213;-63
2022/06/28 07:14:27;;;;;;;52.73;49.50;;;;;;;16.82;100.00;97176.09;5054248;28;20166;-63
2022/06/28 07:16:53;;;;;;;79.43;74.60;;;;;;;16.79;100.00;97179.22;5038726;28;20767;-62
2022/06/28 07:19:18;;;;;;;95.27;89.73;;;;;;;16.71;100.00;97178.94;5034064;28;20225;-64
2022/06/28 07:21:44;;;;;;;74.93;70.17;;;;;;;16.60;100.00;97178.88;5033672;28;20333;-63
2022/06/28 07:24:10;;;;;;;71.90;67.60;;;;;;;16.78;100.00;97185.56;5033940;28;20209;-64
2022/06/28 07:26:36;;;;;;;68.13;64.00;;;;;;;16.91;100.00;97195.72;5046450;28;20201;-64
2022/06/28 07:29:02;;;;;;;56.33;53.00;;;;;;;17.05;100.00;97198.72;5053610;28;20634;-63
2022/06/28 07:31:30;;;;;;;47.80;44.83;;;;;;;17.16;100.00;97215.47;5053456;28;20198;-63
2022/06/28 07:33:59;;;;;;;35.60;33.40;;;;;;;17.49;100.00;97220.38;5053799;28;20159;-63
2022/06/28 07:36:24;;;;;;;48.37;45.47;;;;;;;17.66;100.00;97228.94;5053483;28;20646;-64
2022/06/28 07:38:50;;;;;;;68.80;64.47;;;;;;;17.66;100.00;97231.59;5041477;28;20243;-63
2022/06/28 07:41:16;;;;;;;109.93;103.73;;;;;;;17.64;100.00;97240.84;5033405;28;20206;-64
2022/06/28 07:43:41;;;;;;;115.50;109.15;;;;;;;17.87;100.00;97229.78;5033319;28;20170;-63
2022/06/28 07:46:07;;;;;;;76.25;71.80;;;;;;;18.18;100.00;97234.06;5033770;28;20170;-63
2022/06/28 07:48:32;;;;;;;176.47;166.07;;;;;;;18.21;100.00;97248.69;5034342;28;20199;-63
2022/06/28 07:53:42;;;;;;;86.47;81.75;;;;;;;18.73;100.00;97250.31;5034305;28;20170;-63
2022/06/28 07:56:08;;;;;;;64.20;60.63;;;;;;;18.53;98.98;97251.91;5034223;28;20162;-64
2022/06/28 07:58:33;;;;;;;85.72;81.00;;;;;;;19.33;93.70;97246.75;5033950;28;20171;-63
2022/06/28 08:00:59;;;;;;;169.27;159.75;;;;;;;19.67;91.19;97246.94;5033085;28;20217;-64
2022/06/28 08:03:25;;;;;;;168.88;159.70;;;;;;;20.07;89.60;97241.38;5031812;28;20170;-64
2022/06/28 08:05:50;;;;;;;252.98;238.98;;;;;;;20.08;90.22;97234.19;5033138;28;20250;-64
2022/06/28 08:08:16;;;;;;;195.77;185.27;;;;;;;20.36;88.15;97224.69;5033015;28;20174;-64
2022/06/28 08:10:41;;;;;;;218.95;207.05;;;;;;;20.67;87.25;97223.41;5033176;28;20216;-64
2022/06/28 08:13:07;;;;;;;189.00;178.82;;;;;;;20.62;84.59;97220.75;5033021;28;20577;-64
2022/06/28 08:15:32;;;;;;;185.82;175.30;;;;;;;20.65;85.14;97217.53;5032477;28;20183;-64
2022/06/28 08:17:57;;;;;;;160.73;151.80;;;;;;;20.78;83.90;97216.91;5032958;28;20258;-64
2022/06/28 08:20:23;;;;;;;226.60;214.05;;;;;;;21.18;84.52;97202.38;5032841;28;20580;-64
2022/06/28 08:22:48;;;;;;;151.90;143.50;;;;;;;20.90;83.39;97209.28;5032197;28;20170;-64
2022/06/28 08:25:14;;;;;;;121.30;114.55;;;;;;;20.87;83.04;97207.22;5032250;28;20195;-64
2022/06/28 08:27:39;;;;;;;114.20;107.82;;;;;;;20.51;84.03;97204.06;5032750;28;20639;-64
2022/06/28 08:30:06;;;;;;;118.28;111.90;;;;;;;21.55;77.05;97202.47;5032636;28;20237;-64
2022/06/28 08:32:31;;;;;;;97.75;92.43;;;;;;;21.17;79.55;97208.00;5032714;28;20178;-64
2022/06/28 08:34:56;;;;;;;97.38;92.07;;;;;;;20.85;79.70;97219.22;5032854;28;20182;-63
2022/06/28 08:37:22;;;;;;;103.47;97.55;;;;;;;20.11;84.95;97217.69;5032500;28;20190;-64
2022/06/28 08:39:47;;;;;;;111.40;105.35;;;;;;;20.95;81.80;97216.47;5047881;28;20240;-64
2022/06/28 08:42:19;;;;;;;112.50;106.32;;;;;;;20.81;81.18;97213.66;5052392;28;20639;-64
2022/06/28 08:44:47;;;;;;;113.53;107.15;;;;;;;20.74;83.50;97210.53;5052511;28;20176;-64
2022/06/28 08:47:14;;;;;;;106.55;100.63;;;;;;;20.46;81.40;97208.63;5052726;28;20165;-64
2022/06/28 08:50:00;;;;;;;108.15;102.30;;;;;;;20.26;82.69;97206.91;5052477;28;20158;-64
2022/06/28 08:52:26;;;;;;;112.63;106.55;;;;;;;20.78;80.25;97198.25;5052483;28;20284;-64
2022/06/28 08:54:52;;;;;;;223.20;211.45;;;;;;;21.65;74.66;97196.19;5052180;28;20166;-64
2022/06/28 08:57:19;;;;;;;229.35;217.35;;;;;;;21.26;78.89;97200.97;5052657;28;20576;-64
2022/06/28 08:59:46;;;;;;;273.35;259.13;;;;;;;21.69;77.23;97194.53;5052625;28;20201;-64
2022/06/28 09:02:13;;;;;;;137.20;129.95;;;;;;;21.23;79.36;97196.22;5052365;28;20158;-62
2022/06/28 09:04:39;;;;;;;133.00;125.95;;;;;;;21.12;78.61;97192.84;5052437;28;20533;-63
2022/06/28 09:07:04;;;;;;;240.48;227.15;;;;;;;20.97;76.32;97207.09;5052588;28;20178;-63
2022/06/28 09:09:29;;;;;;;246.18;232.60;;;;;;;20.34;80.01;97191.16;5052494;28;20228;-64
2022/06/28 09:11:55;;;;;;;291.60;275.67;;;;;;;20.92;77.63;97190.38;5052373;28;20220;-64
2022/06/28 09:14:28;;;;;;;233.50;220.30;;;;;;;20.66;78.25;97179.97;5052437;28;20198;-63
2022/06/28 09:16:55;;;;;;;154.77;146.52;;;;;;;20.97;78.20;97183.13;5051977;28;20186;-64
2022/06/28 09:19:40;;;;;;;313.90;297.42;;;;;;;20.62;78.33;97175.47;5051895;28;20205;-64
2022/06/28 09:22:06;;;;;;;90.55;85.57;;;;;;;20.98;78.12;97176.72;5051529;28;20209;-62
2022/06/28 09:24:33;;;;;;;152.63;144.48;;;;;;;21.42;76.10;97178.34;5051029;28;20186;-63
2022/06/28 09:27:05;;;;;;;266.63;252.68;;;;;;;20.69;78.38;97189.25;5052083;28;20178;-63
2022/06/28 09:29:48;;;;;;;212.02;200.88;;;;;;;20.84;77.62;97193.66;5051653;28;20247;-63
2022/06/28 09:32:13;;;;;;;253.32;239.93;;;;;;;21.20;76.22;97189.56;5051552;28;20182;-63
2022/06/28 09:34:55;;;;;;;195.73;185.13;;;;;;;20.92;74.91;97198.38;5054768;28;20188;-64
2022/06/28 09:37:36;;;;;;;199.45;189.05;;;;;;;21.33;75.61;97194.22;5055947;28;20205;-64
2022/06/28 09:40:19;;;;;;;164.13;155.23;;;;;;;21.06;76.08;97199.28;5033940;28;20245;-64
2022/06/28 09:43:06;;;;;;;236.05;223.07;;;;;;;21.43;75.22;97198.63;5035602;28;20210;-64
2022/06/28 09:45:33;;;;;;;278.65;263.40;;;;;;;21.53;72.48;97188.63;5034985;28;20209;-64
2022/06/28 09:47:58;;;;;;;282.02;267.35;;;;;;;21.70;72.36;97185.47;5036108;28;20162;-64
2022/06/28 09:50:24;;;;;;;222.68;210.80;;;;;;;22.30;69.17;97189.13;5035936;28;20570;-64
2022/06/28 09:52:50;;;;;;;210.57;199.55;;;;;;;21.49;72.66;97184.13;5035739;28;20166;-64
2022/06/28 09:55:17;;;;;;;212.88;201.50;;;;;;;21.89;72.09;97183.59;5034902;28;20159;-65
2022/06/28 09:57:45;;;;;;;273.65;259.08;;;;;;;21.35;70.87;97185.91;5035736;28;20251;-63
2022/06/28 10:00:12;;;;;;;382.00;360.55;;;;;;;21.09;71.87;97193.38;5035673;28;20214;-63
2022/06/28 10:02:41;;;;;;;322.50;304.85;;;;;;;22.02;68.92;97199.97;5034839;28;20675;-63
2022/06/28 10:05:07;;;;;;;282.17;266.77;;;;;;;22.39;68.21;97192.75;5035205;28;20261;-64
2022/06/28 10:07:34;;;;;;;237.70;224.98;;;;;;;21.42;71.06;97184.50;5035390;28;20242;-63
2022/06/28 10:10:01;;;;;;;225.85;213.77;;;;;;;21.40;70.16;97167.19;5034980;28;20196;-63
2022/06/28 10:15:17;;;;;;;215.93;204.40;;;;;;;21.54;70.50;97158.19;5036013;28;20205;-63
2022/06/28 10:18:00;;;;;;;212.38;201.07;;;;;;;22.57;67.83;97152.91;5036179;28;20163;-64
2022/06/28 10:20:32;;;;;;;236.20;223.48;;;;;;;22.54;67.05;97153.47;5023054;28;20236;-63
2022/06/28 10:23:19;;;;;;;230.70;218.38;;;;;;;22.45;68.24;97148.03;5017170;28;20704;-64
2022/06/28 10:26:01;;;;;;;233.05;220.57;;;;;;;22.18;68.13;97151.41;5033371;28;20190;-63
2022/06/28 10:28:28;;;;;;;262.92;248.90;;;;;;;21.62;67.91;97140.75;5035272;28;20174;-63
2022/06/28 10:31:25;;;;;;;401.17;379.45;;;;;;;21.38;69.26;97129.34;5034912;28;20667;-63
2022/06/28 10:33:56;;;;;;;352.58;333.05;;;;;;;21.34;69.89;97139.00;5030897;28;20214;-63
2022/06/28 10:36:24;;;;;;;326.25;308.13;;;;;;;21.32;70.31;97133.94;5034851;28;20677;-63
2022/06/28 10:39:01;;;;;;;315.33;297.88;;;;;;;21.44;69.07;97134.31;5042411;28;20698;-63
2022/06/28 10:41:37;;;;;;;306.58;289.75;;;;;;;21.36;70.31;97126.16;5055005;28;20286;-63
2022/06/28 10:44:12;;;;;;;323.77;305.83;;;;;;;21.86;67.72;97133.44;5055423;28;20250;-63
2022/06/28 10:46:39;;;;;;;331.63;313.23;;;;;;;21.95;66.55;97128.28;5054258;28;20169;-63
2022/06/28 10:49:07;;;;;;;401.02;378.38;;;;;;;21.50;69.05;97111.03;5054808;28;20576;-63
2022/06/28 10:51:33;;;;;;;381.23;359.85;;;;;;;21.78;67.83;97111.97;5054917;28;20205;-64
2022/06/28 10:54:05;;;;;;;344.73;325.85;;;;;;;22.04;66.55;97107.84;5054401;28;20173;-64
2022/06/28 10:56:36;;;;;;;292.73;277.25;;;;;;;21.92;65.46;97100.25;5054427;28;20163;-63
2022/06/28 10:59:04;;;;;;;321.90;304.70;;;;;;;21.69;67.26;97087.81;5054533;28;20162;-64
2022/06/28 11:01:44;;;;;;;320.58;303.33;;;;;;;21.72;67.54;97089.13;5054592;28;20205;-63
2022/06/28 11:04:36;;;;;;;321.27;304.25;;;;;;;21.98;65.98;97085.78;5054041;28;20166;-64
2022/06/28 11:07:20;;;;;;;296.75;280.88;;;;;;;21.72;68.36;97089.91;5050242;28;20667;-63
2022/06/28 11:10:00;;;;;;;291.95;276.25;;;;;;;21.93;66.19;97085.03;5054213;28;20186;-62
2022/06/28 11:12:31;;;;;;;309.70;293.38;;;;;;;21.91;65.38;97073.84;5054351;28;20527;-63
2022/06/28 11:14:58;;;;;;;283.65;268.33;;;;;;;22.14;66.58;97066.81;5054094;28;20529;-62
2022/06/28 11:17:32;;;;;;;298.67;282.55;;;;;;;22.30;66.19;97076.94;5054148;28;20261;-63
2022/06/28 11:20:02;;;;;;;303.27;286.98;;;;;;;21.87;68.09;97062.19;5043790;28;20213;-63
2022/06/28 11:22:33;;;;;;;255.98;242.40;;;;;;;22.19;68.51;97064.84;5034225;28;20175;-63